Time;durP1;ratioP1;P1;durP2;ratioP2;P2;SDS_P1;SDS_P2;PMS_P1;PMS_P2;Temp;Humidity;BMP_temperature;BMP_pressure;BME280_temperature;BME280_humidity;BME280_pressure;Samples;Min_cycle;Max_cycle;Signal;HPM_P1;HPM_P2
2021/04/25 00:00:23;;;;;;;3.97;1.83;;;;;;;-1.04;nan;102393.81;4994914;28;20040;-74
2021/04/25 00:02:49;;;;;;;2.67;1.50;;;;;;;-1.16;nan;102387.78;5004055;28;20032;-75
2021/04/25 00:05:17;;;;;;;2.40;1.70;;;;;;;-1.12;nan;102397.06;4988964;28;20034;-75
2021/04/25 00:07:43;;;;;;;2.50;1.48;;;;;;;-1.12;nan;102391.81;4991192;28;20080;-79
2021/04/25 00:10:11;;;;;;;2.72;1.48;;;;;;;-1.12;nan;102386.56;4995279;28;20069;-74
2021/04/25 00:12:40;;;;;;;3.00;1.77;;;;;;;-1.15;nan;102386.81;4998195;28;20148;-73
2021/04/25 00:15:08;;;;;;;4.82;1.85;;;;;;;-1.17;nan;102382.66;4995405;28;20040;-72
2021/04/25 00:17:34;;;;;;;4.68;1.85;;;;;;;-1.18;nan;102387.09;4974272;28;20083;-72
2021/04/25 00:19:59;;;;;;;2.10;1.90;;;;;;;-1.28;nan;102383.56;4994239;28;20451;-72
2021/04/25 00:22:25;;;;;;;2.50;1.70;;;;;;;-1.24;nan;102382.38;4994867;28;20041;-72
2021/04/25 00:24:50;;;;;;;3.25;1.70;;;;;;;-1.19;nan;102374.06;4997361;28;20113;-72
2021/04/25 00:27:16;;;;;;;3.75;1.75;;;;;;;-1.21;nan;102379.47;4997216;28;20050;-72
2021/04/25 00:29:42;;;;;;;4.05;1.88;;;;;;;-1.11;nan;102382.13;4993741;28;20508;-72
2021/04/25 00:32:07;;;;;;;4.13;2.05;;;;;;;-1.22;nan;102375.19;4996150;28;20034;-72
2021/04/25 00:34:33;;;;;;;3.47;1.98;;;;;;;-1.21;nan;102374.22;4993688;28;20085;-72
2021/04/25 00:36:58;;;;;;;6.22;3.10;;;;;;;-1.45;nan;102378.91;4994429;28;20128;-72
2021/04/25 00:39:24;;;;;;;4.25;1.83;;;;;;;-1.44;nan;102375.31;4995960;28;20108;-72
2021/04/25 00:41:49;;;;;;;3.63;1.95;;;;;;;-1.40;nan;102372.31;4996215;28;20033;-72
2021/04/25 00:44:15;;;;;;;9.25;2.42;;;;;;;-1.29;nan;102368.75;4984737;28;20161;-72
2021/04/25 00:46:41;;;;;;;3.70;1.80;;;;;;;-1.24;nan;102370.03;4998707;28;20381;-72
2021/04/25 00:49:07;;;;;;;3.80;2.08;;;;;;;-1.13;nan;102371.75;4995674;28;20062;-72
2021/04/25 00:51:33;;;;;;;4.05;2.05;;;;;;;-1.05;nan;102366.66;4978412;28;20038;-72
2021/04/25 00:54:01;;;;;;;4.03;1.90;;;;;;;-0.89;nan;102379.34;4994690;28;20033;-72
2021/04/25 00:56:27;;;;;;;5.10;1.90;;;;;;;-0.81;nan;102368.13;4997317;28;20029;-72
2021/04/25 00:58:53;;;;;;;5.47;2.00;;;;;;;-0.72;nan;102367.31;4995986;28;20052;-72
2021/04/25 01:01:19;;;;;;;5.20;2.10;;;;;;;-0.65;nan;102357.91;4994047;28;20127;-72
2021/04/25 01:03:44;;;;;;;5.53;2.40;;;;;;;-0.54;nan;102370.94;4982587;28;20485;-72
2021/04/25 01:06:10;;;;;;;5.47;2.08;;;;;;;-0.48;nan;102369.59;4995720;28;20155;-72
2021/04/25 01:08:37;;;;;;;6.05;2.00;;;;;;;-0.40;nan;102373.19;4994722;28;20033;-72
2021/04/25 01:11:03;;;;;;;4.28;2.10;;;;;;;-0.30;nan;102362.69;4994140;28;20045;-72
2021/04/25 01:13:28;;;;;;;17.27;2.70;;;;;;;-0.22;nan;102367.25;4995771;28;20018;-72
2021/04/25 01:15:54;;;;;;;5.00;2.17;;;;;;;-0.20;nan;102362.69;4992621;28;20030;-71
2021/04/25 01:18:19;;;;;;;5.03;2.50;;;;;;;-0.15;nan;102360.47;4993944;28;20513;-72
2021/04/25 01:20:45;;;;;;;5.07;2.60;;;;;;;-0.10;nan;102369.63;4991061;28;20097;-72
2021/04/25 01:23:11;;;;;;;5.85;2.35;;;;;;;-0.14;nan;102362.97;4993650;28;20106;-72
2021/04/25 01:25:37;;;;;;;4.20;2.13;;;;;;;-0.07;nan;102360.59;4994646;28;20113;-71
2021/04/25 01:28:03;;;;;;;3.35;1.98;;;;;;;0.00;nan;102364.38;4992760;28;20571;-71
2021/04/25 01:30:31;;;;;;;4.63;2.33;;;;;;;-0.01;nan;102360.03;4994553;28;20509;-71
2021/04/25 01:32:57;;;;;;;3.63;1.98;;;;;;;-0.01;nan;102357.41;4982167;28;20033;-71
2021/04/25 01:35:24;;;;;;;6.60;3.17;;;;;;;0.06;nan;102358.53;4972484;28;20045;-71
2021/04/25 01:37:54;;;;;;;4.85;2.85;;;;;;;0.10;nan;102354.63;4978662;28;20033;-71
2021/04/25 01:40:23;;;;;;;7.57;3.78;;;;;;;0.12;nan;102357.13;4995147;28;20105;-72
2021/04/25 01:42:49;;;;;;;9.32;3.80;;;;;;;0.20;nan;102363.38;4994043;28;20880;-71
2021/04/25 01:45:18;;;;;;;5.10;3.05;;;;;;;0.29;nan;102370.44;4993189;28;20412;-71
2021/04/25 01:47:51;;;;;;;7.13;3.20;;;;;;;0.16;nan;102361.16;4995301;28;20028;-71
2021/04/25 01:50:19;;;;;;;7.45;2.90;;;;;;;0.25;nan;102353.25;4970897;28;20033;-71
2021/04/25 01:52:45;;;;;;;6.78;2.58;;;;;;;0.29;nan;102354.63;4992556;28;20026;-71
2021/04/25 01:55:12;;;;;;;5.25;2.45;;;;;;;0.34;nan;102363.91;4974647;28;20077;-71
2021/04/25 01:57:39;;;;;;;4.00;2.88;;;;;;;0.32;nan;102358.75;4993563;28;20137;-71
2021/04/25 02:00:07;;;;;;;3.90;2.20;;;;;;;0.41;nan;102368.47;4973353;28;20037;-71
2021/04/25 02:02:33;;;;;;;6.30;2.25;;;;;;;0.47;nan;102357.34;4995442;28;20033;-71
2021/04/25 02:04:59;;;;;;;5.65;2.47;;;;;;;0.45;nan;102359.31;4995090;28;20034;-71
2021/04/25 02:07:24;;;;;;;4.90;2.28;;;;;;;0.44;nan;102359.44;4994767;28;20029;-72
2021/04/25 02:09:50;;;;;;;3.33;2.25;;;;;;;0.50;nan;102357.06;4975030;28;20148;-71
2021/04/25 02:12:15;;;;;;;5.03;2.42;;;;;;;0.43;nan;102355.16;4974626;28;20037;-71
2021/04/25 02:14:42;;;;;;;3.58;2.03;;;;;;;0.40;nan;102350.16;4993394;28;20030;-71
2021/04/25 02:17:08;;;;;;;6.72;2.53;;;;;;;0.47;nan;102356.53;4994708;28;20022;-71
2021/04/25 02:19:34;;;;;;;5.10;2.10;;;;;;;0.58;nan;102359.00;4992646;28;20030;-71
2021/04/25 02:22:00;;;;;;;6.18;2.42;;;;;;;0.61;nan;102358.72;4995892;28;20038;-71
2021/04/25 02:24:25;;;;;;;7.90;2.70;;;;;;;0.66;nan;102355.63;4990721;28;20026;-71
2021/04/25 02:26:51;;;;;;;5.15;2.55;;;;;;;0.68;nan;102354.50;4994595;28;20030;-71
2021/04/25 02:29:16;;;;;;;4.05;2.13;;;;;;;0.73;nan;102356.75;4993038;28;20061;-71
2021/04/25 02:31:42;;;;;;;3.78;2.47;;;;;;;0.77;nan;102353.66;4974977;28;20637;-71
2021/04/25 02:34:08;;;;;;;3.50;2.15;;;;;;;0.72;nan;102340.09;4997234;28;20033;-71
2021/04/25 02:36:34;;;;;;;3.25;2.30;;;;;;;0.74;nan;102348.69;4991809;28;20122;-71
2021/04/25 02:38:59;;;;;;;5.80;2.53;;;;;;;0.76;nan;102349.38;4996703;28;20104;-71
2021/04/25 02:41:27;;;;;;;4.40;2.33;;;;;;;0.73;nan;102352.28;4991971;28;20124;-71
2021/04/25 02:43:53;;;;;;;6.00;2.40;;;;;;;0.74;nan;102353.97;4990422;28;20042;-71
2021/04/25 02:46:18;;;;;;;3.40;2.63;;;;;;;0.71;nan;102348.13;4973476;28;20108;-71
2021/04/25 02:48:44;;;;;;;3.17;2.05;;;;;;;0.52;nan;102349.84;4990622;28;20122;-71
2021/04/25 02:51:09;;;;;;;3.38;1.88;;;;;;;0.63;nan;102343.56;4975210;28;20041;-71
2021/04/25 02:53:35;;;;;;;3.60;1.52;;;;;;;0.65;nan;102338.16;4991722;28;20072;-71
2021/04/25 02:56:01;;;;;;;3.90;1.92;;;;;;;0.72;nan;102337.44;4993616;28;20041;-71
2021/04/25 02:58:26;;;;;;;4.28;1.92;;;;;;;0.72;nan;102340.09;4994374;28;20030;-71
2021/04/25 03:00:52;;;;;;;3.90;2.33;;;;;;;0.74;nan;102342.56;4987228;28;20025;-71
2021/04/25 03:03:17;;;;;;;4.20;1.92;;;;;;;0.75;nan;102347.69;4998599;28;20030;-71
2021/04/25 03:05:43;;;;;;;4.85;2.13;;;;;;;0.79;nan;102333.25;4996286;28;20709;-71
2021/04/25 03:08:09;;;;;;;3.55;2.65;;;;;;;0.78;nan;102342.13;4982220;28;20033;-71
2021/04/25 03:10:35;;;;;;;5.10;2.05;;;;;;;0.79;nan;102341.16;4981641;28;20022;-71
2021/04/25 03:13:00;;;;;;;6.60;2.15;;;;;;;0.83;nan;102346.97;5000506;28;20041;-71
2021/04/25 03:15:26;;;;;;;7.03;2.53;;;;;;;0.78;nan;102344.78;4991083;28;20156;-71
2021/04/25 03:17:52;;;;;;;5.65;2.20;;;;;;;0.80;nan;102341.97;4995681;28;20038;-71
2021/04/25 03:20:21;;;;;;;5.07;2.42;;;;;;;0.79;nan;102335.88;4984935;28;20037;-71
2021/04/25 03:22:47;;;;;;;8.02;2.30;;;;;;;0.84;nan;102330.97;4996635;28;20104;-71
2021/04/25 03:25:14;;;;;;;3.85;2.28;;;;;;;0.84;nan;102333.63;4996723;28;20025;-71
2021/04/25 03:27:40;;;;;;;4.10;1.95;;;;;;;0.80;nan;102334.06;4999902;28;20061;-71
2021/04/25 03:30:07;;;;;;;6.47;2.05;;;;;;;0.86;nan;102334.31;4995031;28;20061;-71
2021/04/25 03:32:33;;;;;;;2.72;1.90;;;;;;;0.87;nan;102330.69;4996696;28;20034;-71
2021/04/25 03:34:59;;;;;;;5.07;1.90;;;;;;;0.85;nan;102331.81;4995524;28;20030;-71
2021/04/25 03:37:25;;;;;;;3.35;1.98;;;;;;;0.84;nan;102330.16;4996056;28;20022;-71
2021/04/25 03:39:50;;;;;;;5.38;1.75;;;;;;;0.91;nan;102328.63;4997288;28;20040;-71
2021/04/25 03:42:16;;;;;;;3.83;1.70;;;;;;;1.05;nan;102328.09;4997812;28;20124;-71
2021/04/25 03:44:41;;;;;;;3.30;1.83;;;;;;;1.06;nan;102326.28;4998805;28;20116;-71
2021/04/25 03:47:07;;;;;;;5.40;1.75;;;;;;;1.04;nan;102330.91;4975502;28;20512;-71
2021/04/25 03:49:33;;;;;;;3.67;1.95;;;;;;;1.06;nan;102337.69;4982159;28;20033;-71
2021/04/25 03:51:59;;;;;;;5.90;2.20;;;;;;;1.08;nan;102332.28;4996941;28;20377;-71
2021/04/25 03:54:24;;;;;;;2.80;2.00;;;;;;;1.07;nan;102325.31;4983561;28;20042;-71
2021/04/25 03:56:51;;;;;;;3.35;2.00;;;;;;;1.07;nan;102328.78;5003578;28;20091;-71
2021/04/25 03:59:17;;;;;;;4.18;2.25;;;;;;;1.08;nan;102327.84;4986517;28;20045;-71
2021/04/25 04:01:43;;;;;;;6.88;2.30;;;;;;;1.09;nan;102321.59;4998491;28;20029;-71
2021/04/25 04:04:08;;;;;;;6.50;1.80;;;;;;;1.14;nan;102332.53;4998980;28;20050;-71
2021/04/25 04:06:34;;;;;;;3.80;2.15;;;;;;;1.25;nan;102328.81;5001727;28;20022;-71
2021/04/25 04:09:00;;;;;;;3.85;2.05;;;;;;;1.23;nan;102330.78;5003795;28;20392;-71
2021/04/25 04:11:25;;;;;;;3.83;1.98;;;;;;;1.18;nan;102346.25;5004756;28;20084;-71
2021/04/25 04:13:51;;;;;;;5.47;2.30;;;;;;;1.21;nan;102345.94;5003529;28;20033;-71
2021/04/25 04:16:18;;;;;;;5.60;2.47;;;;;;;1.20;nan;102350.41;4994581;28;20042;-71
2021/04/25 04:18:43;;;;;;;4.97;2.47;;;;;;;1.21;nan;102338.03;5002302;28;20084;-71
2021/04/25 04:21:09;;;;;;;3.60;1.88;;;;;;;1.36;nan;102333.91;5000217;28;20493;-71
2021/04/25 04:23:35;;;;;;;3.40;1.90;;;;;;;1.43;nan;102326.22;5003140;28;20030;-71
2021/04/25 04:26:00;;;;;;;3.55;1.90;;;;;;;1.45;nan;102326.91;5003243;28;20030;-71
2021/04/25 04:28:25;;;;;;;5.18;2.55;;;;;;;1.40;nan;102331.78;4999629;28;20029;-71
2021/04/25 04:30:51;;;;;;;2.78;1.52;;;;;;;1.37;nan;102335.56;5000745;28;20057;-71
2021/04/25 04:33:17;;;;;;;2.75;1.70;;;;;;;1.38;nan;102339.88;4999467;28;20055;-71
2021/04/25 04:35:42;;;;;;;3.13;1.70;;;;;;;1.44;nan;102341.09;5001791;28;20036;-71
2021/04/25 04:38:08;;;;;;;3.00;1.85;;;;;;;1.49;nan;102344.13;5002717;28;20052;-71
2021/04/25 04:40:33;;;;;;;2.67;1.45;;;;;;;1.49;nan;102337.03;4997978;28;20021;-71
2021/04/25 04:42:59;;;;;;;2.75;1.83;;;;;;;1.43;nan;102340.25;4981310;28;20056;-71
2021/04/25 04:45:24;;;;;;;6.82;2.33;;;;;;;1.51;nan;102348.28;4999636;28;20595;-71
2021/04/25 04:47:50;;;;;;;2.58;1.55;;;;;;;1.61;nan;102347.34;4999369;28;20030;-71
2021/04/25 04:50:18;;;;;;;4.32;1.75;;;;;;;1.71;nan;102350.78;5000661;28;20034;-71
2021/04/25 04:52:45;;;;;;;1.98;1.38;;;;;;;1.81;nan;102354.19;5001367;28;20026;-71
2021/04/25 04:55:11;;;;;;;2.72;1.58;;;;;;;1.83;nan;102346.94;5000452;28;20492;-71
2021/04/25 04:57:36;;;;;;;2.05;1.42;;;;;;;1.86;nan;102341.34;4994112;28;20060;-70
2021/04/25 05:00:04;;;;;;;1.45;1.27;;;;;;;2.01;nan;102345.09;4981993;28;20527;-71
2021/04/25 05:02:29;;;;;;;2.45;1.60;;;;;;;2.11;nan;102345.00;4977008;28;20027;-71
2021/04/25 05:04:55;;;;;;;3.40;1.73;;;;;;;2.15;nan;102337.59;4996495;28;20030;-71
2021/04/25 05:07:20;;;;;;;2.75;1.63;;;;;;;2.24;nan;102339.31;4996622;28;20087;-71
2021/04/25 05:09:46;;;;;;;2.90;1.80;;;;;;;2.25;nan;102340.97;4997703;28;20068;-70
2021/04/25 05:12:11;;;;;;;4.70;1.95;;;;;;;2.35;nan;102341.72;4996826;28;20465;-70
2021/04/25 05:14:37;;;;;;;3.10;1.23;;;;;;;2.48;nan;102347.41;4998029;28;20021;-71
2021/04/25 05:17:02;;;;;;;4.35;1.10;;;;;;;2.52;nan;102351.44;4994644;28;20076;-71
2021/04/25 05:19:28;;;;;;;1.85;0.88;;;;;;;2.53;nan;102353.09;4976901;28;20044;-71
2021/04/25 05:21:53;;;;;;;1.17;0.90;;;;;;;2.66;nan;102350.84;4999615;28;20488;-71
2021/04/25 05:24:19;;;;;;;1.52;0.70;;;;;;;2.79;nan;102354.88;4996254;28;20053;-71
2021/04/25 05:26:44;;;;;;;3.83;1.35;;;;;;;2.96;nan;102353.97;5001676;28;20030;-71
2021/04/25 05:29:10;;;;;;;7.57;1.48;;;;;;;3.12;nan;102355.88;4981126;28;20057;-71
2021/04/25 05:31:36;;;;;;;1.60;1.10;;;;;;;3.23;nan;102352.91;4997080;28;20030;-71
2021/04/25 05:34:02;;;;;;;1.42;1.00;;;;;;;3.32;nan;102357.25;4999325;28;20022;-71
2021/04/25 05:36:28;;;;;;;1.20;1.08;;;;;;;3.38;nan;102350.47;5000850;28;20088;-71
2021/04/25 05:38:53;;;;;;;2.03;1.30;;;;;;;3.47;nan;102360.94;4998163;28;20072;-71
2021/04/25 05:41:19;;;;;;;3.83;1.02;;;;;;;3.56;nan;102361.78;4998262;28;20022;-71
2021/04/25 05:43:46;;;;;;;3.80;1.25;;;;;;;3.61;nan;102354.19;4981855;28;20100;-71
2021/04/25 05:46:13;;;;;;;2.03;0.90;;;;;;;3.70;nan;102369.09;4980811;28;20045;-71
2021/04/25 05:48:40;;;;;;;1.88;1.08;;;;;;;3.53;nan;102365.59;4996020;28;20029;-71
2021/04/25 05:51:05;;;;;;;4.10;1.13;;;;;;;3.52;nan;102368.41;4991697;28;20129;-71
2021/04/25 05:53:31;;;;;;;2.53;0.98;;;;;;;3.61;nan;102367.44;4998745;28;20569;-71
2021/04/25 05:55:57;;;;;;;2.47;0.95;;;;;;;3.69;nan;102374.56;5001966;28;20095;-71
2021/04/25 05:58:22;;;;;;;1.27;0.73;;;;;;;3.67;nan;102366.78;4995506;28;20437;-71
2021/04/25 06:00:48;;;;;;;3.20;0.90;;;;;;;3.79;nan;102369.97;4999573;28;20039;-71
2021/04/25 06:03:13;;;;;;;0.95;0.70;;;;;;;3.78;nan;102368.31;4998579;28;20673;-71
2021/04/25 06:05:39;;;;;;;4.00;0.90;;;;;;;3.85;nan;102374.59;4998226;28;20025;-71
2021/04/25 06:08:04;;;;;;;7.88;3.00;;;;;;;4.00;nan;102369.47;4998862;28;20121;-71
2021/04/25 06:10:30;;;;;;;3.78;1.60;;;;;;;4.11;nan;102369.13;4997962;28;20037;-71
2021/04/25 06:12:56;;;;;;;2.60;1.00;;;;;;;4.23;nan;102371.28;4998729;28;20115;-71
2021/04/25 06:15:23;;;;;;;1.63;0.88;;;;;;;4.33;nan;102370.31;4979321;28;20053;-70
2021/04/25 06:17:50;;;;;;;1.55;1.23;;;;;;;4.50;nan;102378.09;4980655;28;20030;-70
2021/04/25 06:20:17;;;;;;;1.63;0.93;;;;;;;4.57;nan;102370.28;4998336;28;20033;-71
2021/04/25 06:22:43;;;;;;;0.85;0.85;;;;;;;4.69;nan;102376.88;4999001;28;20092;-71
2021/04/25 06:25:15;;;;;;;1.48;0.70;;;;;;;4.64;nan;102367.75;4983645;28;20120;-71
2021/04/25 06:27:41;;;;;;;1.52;0.80;;;;;;;4.71;nan;102376.72;4998238;28;20033;-71
2021/04/25 06:30:10;;;;;;;1.20;0.63;;;;;;;4.80;nan;102375.69;4999024;28;20049;-71
2021/04/25 06:32:35;;;;;;;1.15;0.70;;;;;;;4.85;nan;102378.69;4996980;28;20772;-71
2021/04/25 06:35:02;;;;;;;1.70;0.80;;;;;;;4.91;nan;102379.81;4998724;28;20026;-71
2021/04/25 06:37:28;;;;;;;3.35;0.73;;;;;;;4.93;nan;102375.97;4978011;28;20056;-71
2021/04/25 06:39:53;;;;;;;2.63;0.77;;;;;;;4.96;nan;102385.44;4997140;28;20061;-71
2021/04/25 06:42:19;;;;;;;3.85;0.88;;;;;;;5.00;nan;102379.59;4996172;28;20042;-71
2021/04/25 06:44:45;;;;;;;1.95;0.73;;;;;;;4.79;nan;102382.00;4977856;28;20507;-71
2021/04/25 06:47:10;;;;;;;1.20;0.45;;;;;;;4.96;nan;102382.78;4993897;28;20602;-71
2021/04/25 06:49:36;;;;;;;1.13;0.70;;;;;;;5.13;nan;102382.56;4997205;28;20052;-71
2021/04/25 06:52:02;;;;;;;0.95;0.60;;;;;;;5.43;nan;102377.44;4982913;28;20034;-71
2021/04/25 06:54:28;;;;;;;5.00;0.90;;;;;;;5.42;nan;102373.13;4994693;28;20591;-71
2021/04/25 06:56:53;;;;;;;1.25;0.75;;;;;;;5.76;nan;102378.09;4997274;28;20030;-71
2021/04/25 06:59:19;;;;;;;1.40;0.65;;;;;;;6.05;nan;102366.75;4994048;28;20503;-71
2021/04/25 07:01:44;;;;;;;3.25;0.80;;;;;;;6.23;nan;102385.06;4998032;28;20122;-71
2021/04/25 07:04:10;;;;;;;4.53;0.77;;;;;;;6.39;nan;102384.09;4996269;28;20065;-71
2021/04/25 07:06:35;;;;;;;3.50;1.25;;;;;;;6.55;nan;102391.94;4994149;28;20104;-71
2021/04/25 07:09:02;;;;;;;3.35;1.10;;;;;;;6.58;nan;102389.72;4976166;28;20022;-71
2021/04/25 07:11:28;;;;;;;2.47;1.00;;;;;;;6.79;nan;102383.69;4992400;28;20038;-71
2021/04/25 07:13:53;;;;;;;3.45;0.90;;;;;;;6.75;nan;102381.59;4976521;28;20033;-71
2021/04/25 07:16:19;;;;;;;0.85;0.60;;;;;;;6.86;nan;102389.97;4996003;28;20668;-71
2021/04/25 07:18:44;;;;;;;2.65;0.75;;;;;;;6.72;nan;102385.44;4990531;28;20021;-71
2021/04/25 07:21:10;;;;;;;1.15;0.80;;;;;;;6.78;nan;102384.69;4991607;28;20021;-71
2021/04/25 07:23:37;;;;;;;2.75;1.00;;;;;;;6.81;nan;102383.50;4994194;28;20933;-71
2021/04/25 07:26:02;;;;;;;4.20;1.00;;;;;;;7.14;nan;102387.44;4996040;28;20540;-71
2021/04/25 07:28:28;;;;;;;5.38;0.90;;;;;;;7.17;nan;102387.06;4971266;28;20063;-71
2021/04/25 07:30:54;;;;;;;3.15;0.93;;;;;;;7.34;nan;102390.38;4996110;28;20605;-71
2021/04/25 07:33:21;;;;;;;3.30;1.15;;;;;;;7.63;nan;102389.50;4991677;28;20026;-71
2021/04/25 07:35:48;;;;;;;2.78;1.02;;;;;;;7.84;nan;102389.50;4992735;28;20034;-71
2021/04/25 07:38:14;;;;;;;1.40;0.80;;;;;;;7.94;nan;102391.03;4995939;28;20605;-71
2021/04/25 07:40:40;;;;;;;2.38;0.90;;;;;;;8.07;nan;102396.50;4995470;28;20125;-72
2021/04/25 07:43:07;;;;;;;3.95;0.70;;;;;;;8.43;nan;102391.09;4976662;28;20028;-71
2021/04/25 07:45:33;;;;;;;3.10;0.80;;;;;;;8.87;nan;102382.78;4972442;28;20512;-71
2021/04/25 07:47:59;;;;;;;1.85;1.00;;;;;;;8.99;nan;102388.41;4993028;28;20120;-71
2021/04/25 07:50:25;;;;;;;1.80;0.90;;;;;;;8.96;nan;102388.75;4993500;28;20120;-71
2021/04/25 07:52:51;;;;;;;4.13;0.80;;;;;;;8.64;nan;102377.69;4997510;28;20022;-72
2021/04/25 07:55:18;;;;;;;1.98;0.60;;;;;;;8.74;nan;102388.03;4983337;28;20040;-71
2021/04/25 07:57:43;;;;;;;1.55;0.80;;;;;;;9.18;nan;102395.69;4996646;28;20062;-72
2021/04/25 08:00:12;;;;;;;2.00;0.93;;;;;;;9.14;nan;102391.75;4995705;28;20041;-72
2021/04/25 08:02:37;;;;;;;3.70;0.95;;;;;;;9.42;nan;102389.00;4994642;28;20057;-72
2021/04/25 08:05:05;;;;;;;4.57;0.63;;;;;;;9.05;nan;102385.75;4996404;28;20691;-71
2021/04/25 08:07:31;;;;;;;2.00;0.60;;;;;;;8.94;nan;102382.78;4977838;28;20041;-71
2021/04/25 08:09:56;;;;;;;2.25;0.50;;;;;;;9.13;nan;102391.94;4978085;28;20495;-72
2021/04/25 08:12:22;;;;;;;1.30;0.70;;;;;;;9.34;nan;102384.66;4995371;28;20156;-72
2021/04/25 08:14:48;;;;;;;3.20;0.80;;;;;;;9.52;nan;102389.47;4994479;28;20034;-72
2021/04/25 08:17:13;;;;;;;2.13;0.70;;;;;;;9.54;nan;102383.91;4989779;28;20037;-71
2021/04/25 08:19:39;;;;;;;1.27;0.63;;;;;;;9.96;nan;102391.59;4992282;28;20027;-72
2021/04/25 08:22:07;;;;;;;6.00;0.73;;;;;;;9.91;nan;102393.25;4994999;28;20030;-71
2021/04/25 08:24:34;;;;;;;4.10;0.70;;;;;;;9.91;nan;102394.06;4997136;28;20036;-72
2021/04/25 08:27:00;;;;;;;3.03;0.68;;;;;;;9.88;nan;102382.97;4999555;28;20034;-72
2021/04/25 08:29:26;;;;;;;2.03;0.85;;;;;;;10.09;nan;102390.81;4978026;28;20117;-72
2021/04/25 08:31:52;;;;;;;5.65;0.82;;;;;;;10.39;nan;102393.09;4994313;28;20104;-72
2021/04/25 08:34:18;;;;;;;1.23;0.52;;;;;;;10.69;nan;102382.78;4993037;28;20428;-71
2021/04/25 08:36:44;;;;;;;2.30;0.88;;;;;;;10.12;nan;102381.53;4993856;28;20105;-72
2021/04/25 08:39:09;;;;;;;1.63;0.70;;;;;;;10.35;nan;102392.69;4976491;28;20506;-72
2021/04/25 08:41:35;;;;;;;3.03;0.60;;;;;;;10.49;nan;102388.16;4993590;28;21288;-72
2021/04/25 08:44:02;;;;;;;2.60;0.98;;;;;;;10.66;nan;102384.00;4992750;28;20034;-72
2021/04/25 08:46:30;;;;;;;3.33;0.98;;;;;;;10.96;nan;102379.00;4993664;28;20034;-72
2021/04/25 08:48:56;;;;;;;1.33;0.57;;;;;;;11.20;nan;102380.16;4992733;28;20034;-72
2021/04/25 08:51:23;;;;;;;2.63;1.13;;;;;;;11.40;nan;102380.91;4973044;28;20061;-71
2021/04/25 08:53:50;;;;;;;2.40;0.82;;;;;;;11.69;nan;102384.88;4983982;28;20026;-72
2021/04/25 08:56:17;;;;;;;3.78;0.85;;;;;;;11.89;nan;102374.06;4974700;28;20099;-72
2021/04/25 08:58:43;;;;;;;1.33;0.70;;;;;;;12.18;nan;102377.13;4997174;28;20030;-72
2021/04/25 09:01:10;;;;;;;0.95;0.65;;;;;;;12.07;nan;102382.19;4990102;28;20078;-72
2021/04/25 09:03:36;;;;;;;1.65;0.50;;;;;;;12.00;nan;102377.88;4993798;28;20030;-72
2021/04/25 09:06:05;;;;;;;2.50;0.65;;;;;;;11.65;nan;102383.66;4973281;28;20087;-72
2021/04/25 09:08:57;;;;;;;1.38;0.40;;;;;;;11.10;nan;102380.59;4992394;28;20107;-73
2021/04/25 09:11:26;;;;;;;1.05;0.52;;;;;;;11.16;nan;102377.09;4994768;28;20026;-72
2021/04/25 09:14:14;;;;;;;1.83;0.50;;;;;;;11.09;nan;102383.50;4995551;28;20023;-72
2021/04/25 09:16:40;;;;;;;1.20;0.55;;;;;;;11.00;nan;102385.59;4993620;28;20619;-72
2021/04/25 09:19:06;;;;;;;1.02;0.38;;;;;;;10.91;nan;102378.78;4977611;28;20400;-72
2021/04/25 09:21:32;;;;;;;2.17;0.70;;;;;;;10.65;nan;102381.53;4980199;28;20030;-73
2021/04/25 09:24:44;;;;;;;1.08;0.40;;;;;;;10.41;nan;102378.50;4995878;28;20080;-73
2021/04/25 09:27:10;;;;;;;6.75;3.85;;;;;;;10.25;nan;102389.63;4975549;28;20034;-72
2021/04/25 09:29:58;;;;;;;5.07;0.95;;;;;;;9.66;nan;102390.28;4980503;28;20030;-73
2021/04/25 09:32:30;;;;;;;2.53;0.70;;;;;;;9.61;nan;102382.88;4975362;28;20089;-73
2021/04/25 09:35:08;;;;;;;1.60;0.47;;;;;;;9.07;nan;102382.88;4977244;28;20029;-72
2021/04/25 09:37:38;;;;;;;0.43;0.43;;;;;;;9.17;nan;102378.00;4987713;28;20123;-72
2021/04/25 09:40:17;;;;;;;1.15;0.45;;;;;;;9.50;nan;102382.63;4994420;28;20036;-72
2021/04/25 09:43:08;;;;;;;0.98;0.40;;;;;;;9.32;nan;102378.66;4992829;28;20018;-72
2021/04/25 09:45:38;;;;;;;2.42;0.55;;;;;;;9.98;nan;102376.16;4977568;28;20532;-72
2021/04/25 09:48:32;;;;;;;0.43;0.40;;;;;;;10.17;nan;102379.88;4993988;28;20377;-72
2021/04/25 09:51:16;;;;;;;1.05;0.40;;;;;;;10.54;nan;102378.44;4975831;28;20030;-72
2021/04/25 09:53:54;;;;;;;0.52;0.45;;;;;;;11.03;nan;102377.13;4995718;28;20026;-72
2021/04/25 09:56:22;;;;;;;1.13;0.68;;;;;;;11.60;nan;102374.59;4977947;28;20082;-71
2021/04/25 09:58:57;;;;;;;0.90;0.40;;;;;;;11.42;nan;102372.63;4999011;28;20091;-72
2021/04/25 10:01:31;;;;;;;0.50;0.50;;;;;;;11.56;nan;102362.66;4998040;28;20034;-72
2021/04/25 10:03:58;;;;;;;0.40;0.40;;;;;;;10.97;nan;102374.47;4999924;28;20148;-74
2021/04/25 10:06:23;;;;;;;0.50;0.40;;;;;;;11.01;nan;102362.28;4996850;28;20101;-74
2021/04/25 10:08:50;;;;;;;1.00;0.50;;;;;;;11.66;nan;102369.19;4993954;28;20121;-74
2021/04/25 10:11:21;;;;;;;0.75;0.50;;;;;;;12.17;nan;102378.16;4996874;28;20034;-75
2021/04/25 10:13:49;;;;;;;1.70;0.50;;;;;;;12.67;nan;102376.28;5000428;28;20022;-74
2021/04/25 10:16:16;;;;;;;2.38;0.60;;;;;;;12.82;nan;102365.16;4990379;28;20030;-74
2021/04/25 10:18:43;;;;;;;2.42;0.50;;;;;;;12.26;nan;102375.00;4994689;28;20037;-74
2021/04/25 10:21:09;;;;;;;1.15;0.50;;;;;;;12.92;nan;102374.34;4975055;28;20396;-74
2021/04/25 10:23:36;;;;;;;0.82;0.47;;;;;;;13.36;nan;102369.72;4993454;28;20104;-75
2021/04/25 10:26:08;;;;;;;2.67;0.55;;;;;;;12.76;nan;102366.91;4995846;28;20026;-75
2021/04/25 10:28:40;;;;;;;1.73;0.60;;;;;;;12.91;nan;102364.63;4995613;28;21057;-74
2021/04/25 10:31:12;;;;;;;1.55;0.75;;;;;;;12.65;nan;102373.81;4979935;28;20048;-75
2021/04/25 10:33:52;;;;;;;1.98;0.63;;;;;;;12.50;nan;102376.03;4998391;28;20030;-75
2021/04/25 10:36:18;;;;;;;0.40;0.40;;;;;;;11.71;nan;102382.81;4978161;28;20034;-74
2021/04/25 10:38:43;;;;;;;0.63;0.30;;;;;;;11.69;nan;102382.19;4992188;28;20079;-74
2021/04/25 10:41:24;;;;;;;0.43;0.30;;;;;;;11.74;nan;102377.00;4996146;28;20523;-74
2021/04/25 10:44:04;;;;;;;2.20;0.73;;;;;;;11.99;nan;102378.94;4996765;28;20527;-75
2021/04/25 10:47:14;;;;;;;1.17;0.30;;;;;;;12.00;nan;102377.88;4994812;28;20508;-75
2021/04/25 10:49:40;;;;;;;1.13;0.40;;;;;;;11.90;nan;102373.00;4928102;28;20039;-74
2021/04/25 10:52:27;;;;;;;1.33;0.40;;;;;;;11.59;nan;102373.78;4971187;28;20038;-75
2021/04/25 10:57:56;;;;;;;2.67;0.30;;;;;;;11.56;nan;102384.94;4996659;28;20397;-74
2021/04/25 11:00:31;;;;;;;3.35;0.30;;;;;;;11.72;nan;102383.63;4992378;28;20032;-74
2021/04/25 11:02:57;;;;;;;0.22;0.20;;;;;;;12.10;nan;102386.28;4976922;28;20521;-74
2021/04/25 11:05:38;;;;;;;1.60;0.30;;;;;;;12.71;nan;102377.47;4990782;28;20436;-74
2021/04/25 11:08:12;;;;;;;0.93;0.32;;;;;;;12.97;nan;102371.81;4992428;28;20030;-74
2021/04/25 11:10:51;;;;;;;0.47;0.43;;;;;;;13.71;nan;102372.56;4991693;28;20025;-74
2021/04/25 11:16:16;;;;;;;0.30;0.30;;;;;;;14.37;nan;102382.31;4993996;28;20116;-74
2021/04/25 11:19:10;;;;;;;0.57;0.40;;;;;;;14.64;nan;102376.47;4994306;28;20105;-74
2021/04/25 11:21:54;;;;;;;0.40;0.40;;;;;;;14.29;nan;102382.63;4974894;28;20030;-74
2021/04/25 11:24:22;;;;;;;3.47;0.60;;;;;;;13.80;nan;102375.72;4976455;28;20022;-75
2021/04/25 11:26:51;;;;;;;0.93;0.40;;;;;;;13.82;nan;102376.31;4997136;28;20528;-75
2021/04/25 11:29:39;;;;;;;1.00;0.40;;;;;;;13.90;nan;102381.41;4992435;28;20056;-74
2021/04/25 11:32:05;;;;;;;0.73;0.50;;;;;;;13.79;nan;102374.09;4979358;28;20034;-74
2021/04/25 11:34:34;;;;;;;0.50;0.45;;;;;;;13.98;nan;102372.16;4981061;28;20022;-75
2021/04/25 11:37:19;;;;;;;1.25;0.40;;;;;;;14.47;nan;102387.13;5000919;28;20568;-74
2021/04/25 11:40:02;;;;;;;0.52;0.47;;;;;;;14.23;nan;102383.59;4997972;28;20084;-75
2021/04/25 11:42:32;;;;;;;0.98;0.40;;;;;;;14.20;nan;102382.19;4980618;28;20030;-75
2021/04/25 11:45:04;;;;;;;2.05;0.45;;;;;;;14.64;nan;102368.38;4998334;28;20033;-74
2021/04/25 11:47:31;;;;;;;2.15;0.40;;;;;;;14.48;nan;102386.09;4995875;28;20416;-74
2021/04/25 11:49:58;;;;;;;1.40;0.50;;;;;;;14.41;nan;102393.44;4998198;28;20037;-74
2021/04/25 11:52:29;;;;;;;3.80;0.50;;;;;;;14.35;nan;102394.34;4978554;28;20033;-75
2021/04/25 11:54:57;;;;;;;1.25;0.30;;;;;;;14.01;nan;102390.56;4996120;28;20377;-74